Time;durP1;ratioP1;P1;durP2;ratioP2;P2;SDS_P1;SDS_P2;PMS_P1;PMS_P2;Temp;Humidity;BMP_temperature;BMP_pressure;BME280_temperature;BME280_humidity;BME280_pressure;Samples;Min_cycle;Max_cycle;Signal;HPM_P1;HPM_P2
2021/11/24 00:02:16;;;;;;;5.40;2.47;;;;;;;19.17;39.24;101895.63;4437075;32;20097;-69
2021/11/24 00:04:42;;;;;;;3.80;2.50;;;;;;;19.19;39.35;101903.72;4432290;32;20147;-69
2021/11/24 00:07:07;;;;;;;7.53;2.53;;;;;;;19.24;39.25;101888.84;4437036;32;21073;-69
2021/11/24 00:09:34;;;;;;;10.38;2.97;;;;;;;19.25;39.20;101885.50;4433917;32;20025;-69
2021/11/24 00:12:03;;;;;;;6.90;3.17;;;;;;;18.99;39.30;101887.00;4434381;32;20932;-69
2021/11/24 00:14:29;;;;;;;5.57;2.62;;;;;;;19.10;39.23;101880.84;4422573;32;20367;-69
2021/11/24 00:16:54;;;;;;;6.40;2.87;;;;;;;19.14;39.26;101879.44;4422545;32;20045;-70
2021/11/24 00:19:21;;;;;;;5.82;3.00;;;;;;;19.12;39.33;101869.78;4424228;32;20115;-70
2021/11/24 00:21:46;;;;;;;4.47;2.90;;;;;;;18.98;39.47;101871.16;4420885;32;20073;-69
2021/11/24 00:24:12;;;;;;;6.30;3.35;;;;;;;18.98;39.69;101865.44;4425168;32;20065;-70
2021/11/24 00:26:38;;;;;;;6.10;3.10;;;;;;;18.66;40.38;101865.94;4426091;32;20049;-69
2021/11/24 00:29:03;;;;;;;10.95;2.87;;;;;;;18.72;40.29;101866.88;4423172;32;21345;-69
2021/11/24 00:31:29;;;;;;;6.18;3.10;;;;;;;18.76;40.33;101875.31;4426254;32;20025;-69
2021/11/24 00:33:55;;;;;;;6.47;3.10;;;;;;;18.94;40.05;101870.50;4428191;32;20047;-69
2021/11/24 00:36:21;;;;;;;7.55;3.22;;;;;;;19.01;39.76;101867.34;4427445;32;20088;-69
2021/11/24 00:38:46;;;;;;;5.97;3.40;;;;;;;18.74;40.09;101866.41;4425122;32;20071;-69
2021/11/24 00:41:12;;;;;;;6.40;3.40;;;;;;;18.71;39.97;101870.22;4427751;32;20442;-69
2021/11/24 00:43:38;;;;;;;6.18;3.72;;;;;;;18.82;39.87;101862.03;4424525;32;20416;-69
2021/11/24 00:46:03;;;;;;;7.15;3.37;;;;;;;18.87;40.17;101852.88;4428292;32;20475;-69
2021/11/24 00:48:29;;;;;;;9.82;3.67;;;;;;;18.90;40.08;101849.88;4426778;32;20021;-69
2021/11/24 00:50:55;;;;;;;7.45;3.45;;;;;;;18.78;40.14;101838.56;4423390;32;20399;-69
2021/11/24 00:53:21;;;;;;;4.80;3.50;;;;;;;18.92;40.14;101832.28;4428523;32;20065;-69
2021/11/24 00:55:47;;;;;;;7.85;3.37;;;;;;;18.83;40.21;101837.94;4427013;32;20060;-69
2021/11/24 00:58:12;;;;;;;8.25;3.65;;;;;;;18.95;39.89;101832.16;4425710;32;20038;-69
2021/11/24 01:00:38;;;;;;;7.65;4.22;;;;;;;19.04;39.79;101835.03;4426552;32;20362;-69
2021/11/24 01:03:05;;;;;;;9.70;4.97;;;;;;;19.09;39.77;101839.31;4422522;32;20053;-69
2021/11/24 01:05:30;;;;;;;9.10;4.03;;;;;;;19.08;39.80;101840.56;4428301;32;20442;-69
2021/11/24 01:07:57;;;;;;;6.40;4.10;;;;;;;19.02;39.87;101842.47;4422362;32;20069;-69
2021/11/24 01:10:23;;;;;;;10.05;3.60;;;;;;;19.14;39.64;101841.53;4425913;32;20034;-69
2021/11/24 01:12:49;;;;;;;6.62;3.70;;;;;;;19.02;39.38;101839.63;4425414;32;20066;-69
2021/11/24 01:15:17;;;;;;;7.25;3.53;;;;;;;19.08;39.60;101837.72;4425086;32;20053;-69
2021/11/24 01:17:42;;;;;;;7.82;3.92;;;;;;;19.17;39.33;101829.19;4417496;32;20110;-69
2021/11/24 01:20:09;;;;;;;7.87;3.78;;;;;;;19.11;39.67;101829.00;4425782;32;20038;-69
2021/11/24 01:22:35;;;;;;;4.65;3.42;;;;;;;19.31;39.37;101825.78;4425817;32;20077;-69
2021/11/24 01:25:01;;;;;;;8.00;4.18;;;;;;;19.01;39.63;101821.69;4426349;32;20503;-69
2021/11/24 01:27:27;;;;;;;8.55;4.80;;;;;;;19.18;39.43;101816.53;4425372;32;20469;-69
2021/11/24 01:29:53;;;;;;;8.63;4.72;;;;;;;18.83;39.84;101821.62;4426026;32;20425;-69
2021/11/24 01:32:18;;;;;;;8.93;5.22;;;;;;;18.93;40.04;101816.78;4420954;32;20807;-69
2021/11/24 01:34:44;;;;;;;8.75;4.68;;;;;;;18.81;40.26;101820.53;4421230;32;20061;-69
2021/11/24 01:37:09;;;;;;;10.30;5.37;;;;;;;18.94;39.80;101812.66;4422914;32;20061;-69
2021/11/24 01:39:35;;;;;;;10.10;5.28;;;;;;;18.79;40.16;101811.62;4423360;32;20501;-69
2021/11/24 01:42:01;;;;;;;10.40;5.68;;;;;;;18.91;39.81;101807.88;4418622;32;20451;-69
2021/11/24 01:44:28;;;;;;;11.10;5.65;;;;;;;18.84;40.05;101796.78;4425137;32;20030;-69
2021/11/24 01:46:57;;;;;;;9.93;5.62;;;;;;;18.90;40.12;101806.31;4424633;32;20072;-69
2021/11/24 01:49:23;;;;;;;10.88;5.45;;;;;;;18.88;40.15;101795.38;4425447;32;20107;-69
2021/11/24 01:51:50;;;;;;;10.70;5.45;;;;;;;18.80;39.96;101790.41;4426589;32;20138;-69
2021/11/24 01:54:17;;;;;;;9.85;5.10;;;;;;;18.88;40.11;101783.16;4427256;32;20118;-69
2021/11/24 01:56:43;;;;;;;10.68;5.62;;;;;;;18.99;39.79;101775.72;4421959;32;20402;-69
2021/11/24 01:59:11;;;;;;;10.23;5.40;;;;;;;18.90;39.92;101783.47;4420501;32;20062;-69
2021/11/24 02:01:38;;;;;;;8.45;4.87;;;;;;;18.91;39.99;101780.16;4420888;32;20068;-69
2021/11/24 02:04:04;;;;;;;7.62;5.32;;;;;;;18.96;39.84;101773.03;4425752;32;20419;-69
2021/11/24 02:06:30;;;;;;;9.82;5.07;;;;;;;18.86;39.76;101775.06;4424901;32;20063;-69
2021/11/24 02:08:56;;;;;;;9.45;4.90;;;;;;;18.79;39.71;101771.72;4421611;32;20034;-69
2021/11/24 02:11:22;;;;;;;10.65;5.47;;;;;;;18.70;39.77;101763.13;4425884;32;20126;-69
2021/11/24 02:13:47;;;;;;;8.82;5.03;;;;;;;18.70;40.03;101766.78;4424330;32;20038;-69
2021/11/24 02:16:13;;;;;;;10.02;5.62;;;;;;;18.94;39.59;101761.28;4422485;32;20068;-69
2021/11/24 02:18:39;;;;;;;9.20;5.15;;;;;;;18.70;39.84;101757.41;4423940;32;20081;-69
2021/11/24 02:21:05;;;;;;;10.48;5.30;;;;;;;18.92;39.43;101749.56;4427635;32;20041;-69
2021/11/24 02:23:30;;;;;;;10.18;5.60;;;;;;;18.95;39.62;101746.56;4426991;32;20089;-69
2021/11/24 02:25:56;;;;;;;12.85;5.00;;;;;;;19.06;39.40;101746.91;4420285;32;20411;-70
2021/11/24 02:28:22;;;;;;;11.55;5.03;;;;;;;19.01;39.19;101741.00;4423716;32;20065;-69
2021/11/24 02:30:48;;;;;;;9.10;5.35;;;;;;;18.85;39.68;101736.41;4424568;32;20111;-69
2021/11/24 02:33:14;;;;;;;11.95;5.50;;;;;;;19.16;39.15;101727.72;4425591;32;20083;-69
2021/11/24 02:35:42;;;;;;;9.07;4.85;;;;;;;19.16;39.03;101724.87;4420608;32;20168;-69
2021/11/24 02:38:08;;;;;;;11.50;5.53;;;;;;;19.39;38.94;101730.00;4422894;32;20100;-69
2021/11/24 02:40:34;;;;;;;7.55;4.72;;;;;;;19.08;39.11;101735.78;4423837;32;20489;-69
2021/11/24 02:43:02;;;;;;;12.07;5.53;;;;;;;18.99;39.47;101732.94;4423971;32;20058;-70
2021/11/24 02:45:28;;;;;;;7.65;4.78;;;;;;;19.16;39.17;101724.87;4419112;32;20059;-69
2021/11/24 02:47:54;;;;;;;8.98;5.35;;;;;;;18.99;39.28;101718.66;4420659;32;20041;-69
2021/11/24 02:50:21;;;;;;;10.10;5.90;;;;;;;18.94;39.18;101719.31;4424471;32;20080;-69
2021/11/24 02:52:47;;;;;;;8.00;4.85;;;;;;;18.91;39.18;101714.53;4423264;32;20105;-69
2021/11/24 02:55:13;;;;;;;10.07;5.47;;;;;;;18.86;39.32;101703.75;4427086;32;20092;-69
2021/11/24 02:57:42;;;;;;;11.50;6.47;;;;;;;18.95;39.23;101697.25;4421639;32;20028;-69
2021/11/24 03:02:54;;;;;;;10.85;6.30;;;;;;;19.17;39.22;101693.00;3996630;31;15015283;-70
2021/11/24 03:05:22;;;;;;;11.25;5.65;;;;;;;19.17;39.22;101693.00;4461170;32;20110;-69
2021/11/24 03:07:49;;;;;;;10.13;6.40;;;;;;;18.84;39.14;101694.87;4453005;32;20105;-70
2021/11/24 03:10:15;;;;;;;8.43;5.70;;;;;;;18.69;39.39;101699.62;4461244;32;20048;-70
2021/11/24 03:12:41;;;;;;;9.45;5.80;;;;;;;18.18;40.47;101689.09;4458587;32;20046;-70
2021/11/24 03:15:08;;;;;;;9.88;5.82;;;;;;;18.21;40.36;101691.00;4458829;32;20068;-70
2021/11/24 03:17:35;;;;;;;10.13;6.07;;;;;;;18.38;40.06;101678.13;4462135;32;20048;-70
2021/11/24 03:20:01;;;;;;;11.15;6.50;;;;;;;17.92;41.22;101677.91;4456238;32;20414;-70
2021/11/24 03:22:27;;;;;;;11.48;6.68;;;;;;;18.06;40.92;101678.59;4457244;32;20098;-70
2021/11/24 03:24:57;;;;;;;10.55;6.22;;;;;;;18.23;40.37;101674.25;4456600;32;20072;-70
2021/11/24 03:30:01;;;;;;;8.55;5.40;;;;;;;18.80;40.03;101662.06;3983134;32;15025673;-70
2021/11/24 03:32:28;;;;;;;12.18;6.32;;;;;;;18.80;40.03;101662.06;4437255;32;20132;-70
2021/11/24 03:34:54;;;;;;;10.38;6.37;;;;;;;18.49;40.01;101653.63;4437393;32;20108;-70
2021/11/24 03:37:23;;;;;;;11.18;6.75;;;;;;;18.65;39.94;101659.03;4433233;32;20123;-70
2021/11/24 03:39:49;;;;;;;10.10;6.43;;;;;;;18.36;40.38;101649.28;4435286;32;20042;-70
2021/11/24 03:42:16;;;;;;;11.00;6.68;;;;;;;18.61;40.00;101647.00;4431539;32;20076;-70
2021/11/24 03:44:43;;;;;;;10.32;6.60;;;;;;;18.14;40.80;101645.72;4432600;32;20073;-70
2021/11/24 03:47:09;;;;;;;11.05;6.37;;;;;;;18.41;40.52;101646.63;4434251;32;20037;-70
2021/11/24 03:49:35;;;;;;;10.80;6.25;;;;;;;18.36;40.68;101638.66;4431916;32;20098;-70
2021/11/24 03:52:01;;;;;;;11.27;6.90;;;;;;;18.26;40.64;101634.22;4435983;32;20417;-69
2021/11/24 03:54:26;;;;;;;10.57;6.40;;;;;;;18.47;40.37;101633.31;4435335;32;20065;-70
2021/11/24 03:56:52;;;;;;;10.18;6.20;;;;;;;18.42;40.71;101627.47;4433975;32;20022;-70
2021/11/24 03:59:18;;;;;;;9.50;6.03;;;;;;;18.60;40.39;101621.81;4435604;32;20073;-70
2021/11/24 04:01:43;;;;;;;9.77;6.28;;;;;;;18.63;40.37;101615.97;4430446;32;20076;-70
2021/11/24 04:04:09;;;;;;;12.00;6.18;;;;;;;18.52;40.09;101611.97;4434771;32;20030;-70
2021/11/24 04:06:35;;;;;;;12.57;6.87;;;;;;;18.48;40.30;101599.94;4433815;32;20122;-70
2021/11/24 04:09:01;;;;;;;9.02;6.28;;;;;;;18.54;40.32;101593.13;4433667;32;20124;-70
2021/11/24 04:11:27;;;;;;;9.23;6.30;;;;;;;18.45;40.27;101589.47;4432362;32;20422;-70
2021/11/24 04:13:53;;;;;;;13.80;6.12;;;;;;;18.44;40.45;101593.59;4432122;32;20077;-70
2021/11/24 04:16:19;;;;;;;9.57;5.80;;;;;;;18.08;40.53;101580.03;4432070;32;20123;-70
2021/11/24 04:18:47;;;;;;;9.88;5.60;;;;;;;18.43;39.79;101577.72;4434709;32;20093;-70
2021/11/24 04:21:15;;;;;;;10.43;6.18;;;;;;;18.50;39.80;101580.31;4434863;32;20064;-70
2021/11/24 04:23:40;;;;;;;8.95;5.65;;;;;;;18.60;39.83;101579.84;4433594;32;20073;-70
2021/11/24 04:26:06;;;;;;;13.70;6.87;;;;;;;18.62;39.67;101571.59;4430056;32;20069;-70
2021/11/24 04:28:32;;;;;;;8.43;5.55;;;;;;;18.62;39.75;101573.66;4434983;32;20084;-70
2021/11/24 04:30:58;;;;;;;10.55;6.03;;;;;;;18.48;39.84;101562.87;4435484;32;20037;-70
2021/11/24 04:33:24;;;;;;;9.02;5.30;;;;;;;18.49;40.35;101576.66;4435290;32;20171;-70
2021/11/24 04:35:50;;;;;;;9.32;5.80;;;;;;;18.69;39.88;101568.44;4434024;32;20045;-69
2021/11/24 04:38:16;;;;;;;9.57;5.35;;;;;;;18.47;39.97;101564.91;4432479;32;20068;-70
2021/11/24 04:40:41;;;;;;;9.80;6.20;;;;;;;18.22;40.60;101565.16;4426009;32;20418;-70
2021/11/24 04:43:11;;;;;;;8.30;4.95;;;;;;;18.54;40.22;101561.78;4423613;32;20116;-70
2021/11/24 04:45:36;;;;;;;8.13;4.87;;;;;;;18.20;40.44;101558.34;4425801;32;20101;-70
2021/11/24 04:48:02;;;;;;;9.48;5.18;;;;;;;18.14;40.98;101557.41;4419538;32;20404;-70
2021/11/24 04:50:28;;;;;;;12.10;5.30;;;;;;;18.34;40.51;101552.84;4424406;32;20209;-70
2021/11/24 04:52:54;;;;;;;10.38;5.20;;;;;;;18.14;40.79;101555.34;4421269;32;20066;-70
2021/11/24 04:55:19;;;;;;;7.18;4.85;;;;;;;18.16;40.66;101546.34;4421764;32;20044;-70
2021/11/24 04:57:46;;;;;;;7.10;4.85;;;;;;;18.19;40.75;101551.09;4423969;32;20096;-70
2021/11/24 05:00:17;;;;;;;7.40;5.03;;;;;;;18.14;40.79;101549.66;4424873;32;20038;-70
2021/11/24 05:02:44;;;;;;;8.13;5.10;;;;;;;18.49;40.46;101548.16;4423558;32;20501;-70
2021/11/24 05:05:10;;;;;;;7.45;4.72;;;;;;;18.57;40.27;101542.94;4425295;32;20030;-70
2021/11/24 05:07:36;;;;;;;8.23;4.62;;;;;;;18.27;40.76;101541.75;4422676;32;20034;-70
2021/11/24 05:10:03;;;;;;;10.55;5.15;;;;;;;18.24;40.69;101542.69;4422805;32;20025;-70
2021/11/24 05:12:29;;;;;;;9.73;4.72;;;;;;;18.68;40.25;101532.63;4422942;32;20065;-70
2021/11/24 05:14:55;;;;;;;7.22;5.28;;;;;;;18.46;40.09;101537.69;4424168;32;20058;-70
2021/11/24 05:17:23;;;;;;;7.18;4.70;;;;;;;18.38;40.07;101527.84;4418599;32;20021;-70
2021/11/24 05:19:51;;;;;;;6.82;4.53;;;;;;;18.37;40.44;101531.19;4426951;32;20030;-70
2021/11/24 05:22:17;;;;;;;6.85;3.72;;;;;;;18.80;39.96;101519.47;4421390;32;20069;-69
2021/11/24 05:24:43;;;;;;;8.15;4.28;;;;;;;18.55;39.88;101516.94;4424515;32;20111;-70
2021/11/24 05:27:09;;;;;;;5.90;3.45;;;;;;;18.50;39.65;101520.44;4422642;32;20077;-70
2021/11/24 05:29:35;;;;;;;9.23;3.75;;;;;;;18.69;39.93;101524.87;4423368;32;20108;-70
2021/11/24 05:32:01;;;;;;;5.65;3.55;;;;;;;18.46;40.13;101520.59;4422321;32;20100;-70
2021/11/24 05:34:27;;;;;;;7.37;3.30;;;;;;;18.48;40.12;101511.56;4422172;32;20359;-69
2021/11/24 05:36:53;;;;;;;6.18;3.30;;;;;;;18.61;39.78;101500.78;4421884;32;20074;-70
2021/11/24 05:39:19;;;;;;;5.45;3.20;;;;;;;18.63;39.74;101506.81;4420525;32;20026;-70
2021/11/24 05:41:45;;;;;;;5.15;3.25;;;;;;;18.64;39.99;101499.84;4418689;32;20410;-70
2021/11/24 05:44:24;;;;;;;5.12;3.35;;;;;;;18.81;39.75;101501.09;4376883;32;20038;-70
2021/11/24 05:46:57;;;;;;;5.47;3.28;;;;;;;18.88;39.50;101495.88;4418625;32;20149;-70
2021/11/24 05:49:25;;;;;;;4.85;3.08;;;;;;;18.93;39.45;101500.12;4422026;32;20080;-70
2021/11/24 05:51:52;;;;;;;4.90;3.15;;;;;;;18.88;39.62;101492.22;4422564;32;20070;-70
2021/11/24 05:54:18;;;;;;;5.35;3.53;;;;;;;18.89;39.33;101496.62;4420699;32;20118;-70
2021/11/24 05:56:45;;;;;;;3.85;2.87;;;;;;;18.78;39.72;101490.66;4421259;32;20444;-70
2021/11/24 05:59:13;;;;;;;5.55;3.08;;;;;;;18.80;39.50;101488.09;4420123;32;20064;-69
2021/11/24 06:01:39;;;;;;;2.50;1.77;;;;;;;18.84;39.29;101486.66;4420590;32;20065;-69
2021/11/24 06:04:05;;;;;;;4.47;2.15;;;;;;;18.36;39.69;101484.78;4423969;32;20034;-69
2021/11/24 06:06:32;;;;;;;4.95;2.05;;;;;;;18.44;39.31;101488.91;4422409;32;20391;-69
2021/11/24 06:08:57;;;;;;;5.40;2.37;;;;;;;18.46;39.03;101480.69;4421439;32;20146;-69
2021/11/24 06:11:23;;;;;;;8.13;1.85;;;;;;;18.52;39.03;101477.97;4419549;32;20074;-69
2021/11/24 06:13:49;;;;;;;4.50;2.25;;;;;;;18.53;38.85;101468.19;4421413;32;20434;-69
2021/11/24 06:16:15;;;;;;;3.58;2.00;;;;;;;18.52;38.68;101463.72;4423188;32;20038;-69
2021/11/24 06:18:41;;;;;;;7.57;1.62;;;;;;;18.51;39.00;101460.09;4422408;32;20073;-69
2021/11/24 06:21:07;;;;;;;5.22;1.50;;;;;;;18.58;38.64;101456.12;4417779;32;20089;-69
2021/11/24 06:23:38;;;;;;;6.18;1.75;;;;;;;18.56;38.45;101455.81;4424257;32;20505;-69
2021/11/24 06:26:04;;;;;;;5.70;2.58;;;;;;;18.54;38.50;101450.59;4422088;32;20034;-69
2021/11/24 06:28:30;;;;;;;5.00;1.73;;;;;;;18.51;38.68;101462.16;4419895;32;20079;-69
2021/11/24 06:30:56;;;;;;;4.62;1.83;;;;;;;18.38;38.47;101458.69;4422077;32;20101;-69
2021/11/24 06:33:23;;;;;;;4.35;1.70;;;;;;;18.44;38.23;101451.09;4417790;32;20037;-69
2021/11/24 06:35:49;;;;;;;5.30;1.70;;;;;;;18.29;38.31;101436.66;4423954;32;20029;-69
2021/11/24 06:38:14;;;;;;;4.12;1.70;;;;;;;18.05;38.94;101432.03;4420437;32;20041;-69
2021/11/24 06:40:41;;;;;;;2.87;1.62;;;;;;;18.25;38.49;101438.06;4422878;32;20449;-69
2021/11/24 06:43:06;;;;;;;7.57;1.67;;;;;;;17.97;38.98;101437.25;4422322;32;20538;-69
2021/11/24 06:45:32;;;;;;;6.32;2.00;;;;;;;18.19;38.46;101425.72;4421367;32;20038;-70
2021/11/24 06:47:58;;;;;;;6.78;1.98;;;;;;;18.41;38.21;101432.84;4417478;32;20163;-70
2021/11/24 06:50:25;;;;;;;4.80;1.70;;;;;;;18.43;38.09;101429.53;4422581;32;20158;-70
2021/11/24 06:52:50;;;;;;;11.10;2.53;;;;;;;18.53;37.96;101423.34;4421558;32;20064;-70
2021/11/24 06:55:16;;;;;;;5.05;2.08;;;;;;;18.51;38.31;101423.06;4421414;32;20101;-70
2021/11/24 06:57:42;;;;;;;6.40;2.55;;;;;;;18.66;38.24;101417.47;4417953;32;20486;-70
2021/11/24 07:00:09;;;;;;;5.45;2.10;;;;;;;18.69;38.21;101408.75;4422415;32;20038;-70
2021/11/24 07:02:35;;;;;;;6.18;2.47;;;;;;;18.90;37.90;101401.25;4420681;32;20383;-70
2021/11/24 07:05:01;;;;;;;5.55;2.20;;;;;;;18.83;38.01;101398.72;4422263;32;20057;-70
2021/11/24 07:07:26;;;;;;;3.65;2.12;;;;;;;18.94;37.96;101396.16;4419870;32;20032;-70
2021/11/24 07:09:52;;;;;;;3.83;2.20;;;;;;;18.82;38.09;101395.09;4420030;32;20477;-70
2021/11/24 07:12:23;;;;;;;3.08;1.95;;;;;;;18.94;37.79;101385.56;4419106;32;20034;-69
2021/11/24 07:14:52;;;;;;;7.62;2.53;;;;;;;18.88;38.03;101381.78;4418285;32;20077;-70
2021/11/24 07:17:18;;;;;;;5.47;2.60;;;;;;;19.02;37.96;101380.31;4419394;32;20106;-70
2021/11/24 07:19:43;;;;;;;7.07;2.45;;;;;;;18.94;37.96;101376.19;4419366;32;20065;-70
2021/11/24 07:22:09;;;;;;;5.47;2.25;;;;;;;18.80;37.78;101374.81;4420681;32;20037;-70
2021/11/24 07:24:35;;;;;;;8.90;2.50;;;;;;;18.74;38.02;101381.63;4419881;32;20034;-70
2021/11/24 07:27:00;;;;;;;6.37;2.10;;;;;;;18.77;38.02;101380.69;4418248;32;20029;-70
2021/11/24 07:29:26;;;;;;;7.47;2.33;;;;;;;18.74;37.78;101390.19;4416737;32;20462;-70
2021/11/24 07:31:52;;;;;;;5.68;2.20;;;;;;;18.87;37.81;101380.19;4422134;32;20042;-70
2021/11/24 07:34:18;;;;;;;5.90;2.30;;;;;;;18.96;37.97;101374.44;4418369;32;20142;-70
2021/11/24 07:36:44;;;;;;;7.15;2.50;;;;;;;18.85;38.12;101376.22;4414365;32;20140;-70
2021/11/24 07:39:10;;;;;;;4.45;2.50;;;;;;;18.80;38.36;101369.13;4412004;32;20038;-70
2021/11/24 07:41:36;;;;;;;6.75;2.47;;;;;;;18.92;38.02;101367.31;4416469;32;20077;-71
2021/11/24 07:44:02;;;;;;;13.13;3.22;;;;;;;19.02;38.10;101366.81;4415489;32;20069;-71
2021/11/24 07:46:27;;;;;;;14.35;4.00;;;;;;;19.05;38.06;101368.69;4411164;32;20433;-70
2021/11/24 07:48:53;;;;;;;12.60;3.62;;;;;;;19.06;37.82;101373.16;4409243;32;20152;-71
2021/11/24 07:51:19;;;;;;;7.12;3.28;;;;;;;18.95;38.20;101369.22;4416042;32;20367;-71
2021/11/24 07:53:46;;;;;;;8.27;3.85;;;;;;;18.87;37.88;101368.78;4408327;32;20050;-71
2021/11/24 07:56:12;;;;;;;6.72;3.30;;;;;;;18.88;37.97;101358.97;4410836;32;20067;-70
2021/11/24 07:58:41;;;;;;;7.68;3.80;;;;;;;18.86;37.67;101364.34;4411758;32;20914;-70
2021/11/24 08:01:08;;;;;;;9.05;4.45;;;;;;;18.93;37.85;101361.12;4410888;32;20041;-70
2021/11/24 08:03:34;;;;;;;8.38;4.37;;;;;;;18.97;37.82;101352.41;4414637;32;20088;-70
2021/11/24 08:06:00;;;;;;;7.50;4.93;;;;;;;18.82;37.83;101351.53;4409863;32;20773;-71
2021/11/24 08:08:25;;;;;;;13.77;6.43;;;;;;;18.84;37.72;101351.84;4411237;32;20073;-70
2021/11/24 08:10:51;;;;;;;16.67;6.62;;;;;;;18.80;37.85;101349.16;4412516;32;20073;-70
2021/11/24 08:13:19;;;;;;;12.07;6.50;;;;;;;18.64;37.85;101345.87;4415768;32;20107;-71
2021/11/24 08:15:45;;;;;;;17.15;7.20;;;;;;;18.44;38.23;101346.41;4412119;32;20077;-70
2021/11/24 08:18:11;;;;;;;13.88;6.65;;;;;;;18.75;37.77;101338.37;4411217;32;20709;-70
2021/11/24 08:20:37;;;;;;;13.30;6.80;;;;;;;18.85;37.86;101336.31;4411690;32;20074;-70
2021/11/24 08:23:03;;;;;;;15.95;7.20;;;;;;;18.79;37.81;101338.22;4414145;32;20066;-70
2021/11/24 08:25:29;;;;;;;11.20;7.10;;;;;;;18.67;37.71;101325.75;4414799;32;20067;-71
2021/11/24 08:27:56;;;;;;;16.08;6.72;;;;;;;18.48;37.98;101329.16;4409006;32;20188;-71
2021/11/24 08:30:22;;;;;;;19.60;8.05;;;;;;;18.47;37.99;101331.19;4417610;32;20068;-71
2021/11/24 08:32:50;;;;;;;18.85;7.85;;;;;;;18.55;37.62;101340.19;4414036;32;20082;-69
2021/11/24 08:35:17;;;;;;;13.00;7.70;;;;;;;18.86;37.45;101332.97;4418802;32;20560;-69
2021/11/24 08:37:43;;;;;;;10.70;6.97;;;;;;;18.54;37.65;101332.94;4417969;32;20120;-70
2021/11/24 08:40:10;;;;;;;11.45;7.35;;;;;;;18.68;37.32;101330.19;4416559;32;21579;-69
2021/11/24 08:42:37;;;;;;;20.15;7.60;;;;;;;18.85;36.96;101324.91;4413147;32;21224;-70
2021/11/24 08:45:06;;;;;;;13.65;7.00;;;;;;;18.80;36.92;101328.41;4418891;32;20440;-69
2021/11/24 08:47:32;;;;;;;10.77;6.30;;;;;;;18.95;36.35;101329.28;4409440;32;20058;-68
2021/11/24 08:49:59;;;;;;;9.35;5.85;;;;;;;18.98;36.12;101334.03;4416355;32;20368;-70
2021/11/24 08:52:25;;;;;;;14.93;6.00;;;;;;;18.90;36.16;101335.66;4412911;32;20158;-70
2021/11/24 08:54:51;;;;;;;13.32;5.22;;;;;;;19.02;35.90;101337.50;4409937;32;20529;-69
2021/11/24 08:57:17;;;;;;;9.57;5.05;;;;;;;19.11;35.27;101326.03;4412902;32;20073;-69
2021/11/24 08:59:43;;;;;;;11.65;5.15;;;;;;;18.84;35.70;101323.31;4409668;32;21221;-69
2021/11/24 09:02:09;;;;;;;17.02;5.72;;;;;;;18.80;35.76;101322.69;4409909;32;20034;-68
2021/11/24 09:04:36;;;;;;;13.85;6.32;;;;;;;18.84;35.97;101329.03;4414299;32;20409;-70
2021/11/24 09:07:02;;;;;;;8.77;5.12;;;;;;;18.76;36.11;101316.38;4417894;32;20605;-70
2021/11/24 09:09:30;;;;;;;11.65;5.65;;;;;;;18.89;35.79;101312.03;4417533;32;20109;-70
2021/11/24 09:11:56;;;;;;;13.50;4.90;;;;;;;18.94;35.62;101302.84;4412923;32;20093;-70
2021/11/24 09:14:23;;;;;;;8.07;4.93;;;;;;;19.14;35.34;101305.88;4412891;32;20328;-69
2021/11/24 09:16:50;;;;;;;29.00;7.30;;;;;;;19.20;35.07;101300.28;4417118;32;20131;-69
2021/11/24 09:19:15;;;;;;;22.95;6.45;;;;;;;19.27;35.13;101297.13;4416139;32;20073;-71
2021/11/24 09:21:42;;;;;;;17.65;6.20;;;;;;;19.07;35.23;101294.03;4415374;32;20037;-70
2021/11/24 09:24:14;;;;;;;12.07;5.12;;;;;;;19.37;35.00;101293.75;4418127;32;20066;-70
2021/11/24 09:26:42;;;;;;;18.33;5.50;;;;;;;19.56;34.83;101297.25;4414774;32;20081;-70
2021/11/24 09:29:09;;;;;;;15.15;5.45;;;;;;;19.54;34.60;101296.94;4408715;32;20082;-70
2021/11/24 09:31:36;;;;;;;18.35;5.40;;;;;;;19.95;34.05;101287.41;4411453;32;20081;-70
2021/11/24 09:34:03;;;;;;;12.80;5.12;;;;;;;19.88;33.97;101279.19;4415411;32;20423;-70
2021/11/24 09:36:28;;;;;;;15.07;5.15;;;;;;;19.92;33.71;101274.09;4412531;32;20076;-70
2021/11/24 09:38:55;;;;;;;16.15;4.62;;;;;;;20.04;33.43;101272.22;4414475;32;20074;-70
2021/11/24 09:41:24;;;;;;;9.90;4.47;;;;;;;20.44;32.67;101269.59;4409317;32;20438;-70
2021/11/24 09:43:53;;;;;;;11.40;4.15;;;;;;;20.69;32.45;101266.12;4413573;32;20065;-70
2021/11/24 09:46:19;;;;;;;7.95;3.58;;;;;;;20.85;31.81;101260.66;4407227;32;20090;-70
2021/11/24 09:48:48;;;;;;;11.75;3.45;;;;;;;20.57;31.65;101255.78;4410907;32;20061;-69
2021/11/24 09:51:14;;;;;;;17.05;5.00;;;;;;;20.71;31.62;101258.59;4408714;32;20161;-70
2021/11/24 09:53:42;;;;;;;13.48;4.32;;;;;;;20.91;31.49;101247.22;4408159;32;20076;-69
2021/11/24 09:56:08;;;;;;;11.25;3.28;;;;;;;20.37;32.38;101247.91;4410341;32;20058;-69
2021/11/24 09:58:35;;;;;;;8.25;2.92;;;;;;;19.99;32.72;101247.19;4406733;32;20121;-69
2021/11/24 10:01:01;;;;;;;7.10;3.33;;;;;;;19.79;32.93;101242.94;4411195;32;20090;-69
2021/11/24 10:03:27;;;;;;;9.98;3.22;;;;;;;19.85;33.05;101253.69;4409101;32;20107;-70
2021/11/24 10:05:54;;;;;;;16.60;3.65;;;;;;;19.96;32.90;101243.25;4407725;32;20149;-69
2021/11/24 10:08:20;;;;;;;7.40;3.05;;;;;;;20.09;32.97;101249.47;4411632;32;20099;-69
2021/11/24 10:10:45;;;;;;;16.98;4.18;;;;;;;19.70;33.48;101247.97;4413985;32;20041;-69
2021/11/24 10:13:13;;;;;;;9.13;3.28;;;;;;;19.75;33.35;101250.13;4410513;32;20065;-70
2021/11/24 10:35:25;;;;;;;10.45;2.60;;;;;;;20.80;31.74;101215.56;4416372;32;20530;-69
2021/11/24 10:37:39;;;;;;;15.35;3.42;;;;;;;20.76;31.50;101205.63;4409792;32;20136;-69
2021/11/24 10:40:08;;;;;;;7.47;2.78;;;;;;;20.46;31.72;101213.50;4412163;32;20065;-70
2021/11/24 10:42:38;;;;;;;7.10;2.90;;;;;;;20.71;31.43;101207.13;4413627;32;20144;-70
2021/11/24 10:45:21;;;;;;;10.60;3.20;;;;;;;20.71;31.38;101204.25;4413308;32;20145;-70
2021/11/24 10:50:30;;;;;;;18.85;3.85;;;;;;;20.97;31.49;101192.97;3978920;31;15212654;-70
2021/11/24 10:52:56;;;;;;;12.30;3.75;;;;;;;20.97;31.49;101192.97;4436971;32;20112;-71
2021/11/24 10:58:03;;;;;;;11.57;2.92;;;;;;;20.95;31.10;101198.38;3966945;31;15707404;-70
2021/11/24 11:00:36;;;;;;;5.05;2.20;;;;;;;20.95;31.10;101198.38;4437115;32;20112;-70
2021/11/24 11:03:03;;;;;;;6.03;2.33;;;;;;;20.30;31.32;101178.91;4438963;32;20727;-70
2021/11/24 11:05:29;;;;;;;10.95;2.80;;;;;;;20.18;31.85;101186.53;4433322;32;20089;-70
2021/11/24 11:13:15;;;;;;;8.25;2.87;;;;;;;19.64;33.00;101172.81;3975645;32;15025619;-70
2021/11/24 11:15:44;;;;;;;10.85;3.15;;;;;;;19.56;32.90;101165.91;4427774;32;20048;-69
2021/11/24 11:26:07;;;;;;;10.80;2.60;;;;;;;19.93;32.49;101146.31;3975019;32;15024035;-69
2021/11/24 11:28:37;;;;;;;13.05;3.03;;;;;;;19.81;32.81;101136.78;4422955;32;20090;-70
2021/11/24 11:31:08;;;;;;;12.70;3.28;;;;;;;19.80;32.89;101130.25;4428835;32;20049;-70
2021/11/24 11:33:38;;;;;;;7.72;2.60;;;;;;;19.62;33.32;101133.34;4427254;32;20159;-70
2021/11/24 11:36:11;;;;;;;14.05;2.85;;;;;;;20.05;32.45;101123.16;4425374;32;20038;-70
2021/11/24 11:38:39;;;;;;;16.23;2.83;;;;;;;19.79;33.05;101127.91;4424382;32;20048;-70
2021/11/24 11:41:05;;;;;;;5.57;2.40;;;;;;;19.82;33.09;101123.28;4427063;32;20159;-70
2021/11/24 11:43:33;;;;;;;10.77;2.58;;;;;;;19.81;32.94;101113.91;4422324;32;20112;-70
2021/11/24 11:46:21;;;;;;;6.35;2.20;;;;;;;19.98;32.72;101103.56;4420721;32;20226;-70
2021/11/24 11:48:48;;;;;;;12.23;3.70;;;;;;;20.00;32.63;101089.56;4424595;32;20049;-70
2021/11/24 11:51:28;;;;;;;10.52;2.80;;;;;;;20.14;32.62;101085.94;4429417;32;20340;-71
2021/11/24 11:53:53;;;;;;;9.93;2.22;;;;;;;20.06;32.58;101084.72;4430527;32;20482;-71
2021/11/24 12:15:16;;;;;;;11.27;3.20;;;;;;;21.09;31.72;101035.22;3985945;31;15020009;-71
2021/11/24 12:17:45;;;;;;;11.75;3.40;;;;;;;21.09;31.72;101035.22;4437195;32;20085;-71
2021/11/24 12:38:28;;;;;;;20.88;4.12;;;;;;;20.94;31.76;101007.94;3958059;32;15022756;-70
2021/11/24 12:40:56;;;;;;;8.45;2.80;;;;;;;20.94;31.76;101007.94;4411630;32;20088;-70